Terminal Aerodrome Forecast
Issued by NWS

Home | Current Version | Previous Version | Graphics & Text | Print | Product List | Glossary On
Versions: 1 2 3 4 5 6 7 8 9 10 11 12 13 14 15 16 17 18
000
FTUS42 KMHX 252300 RRA
TAFOAJ
TAF
KOAJ 252358Z 2600/2624 VRB04KT 4SM -RA BR BKN012
      TEMPO 2603/2606 3SM -RA BR OVC009
     FM260600 05005KT 2SM RA OVC007
     FM261500 33015G20KT P6SM VCSH OVC020
     FM261900 32010G18KT P6SM BKN015 BKN050
      AMD LTD TO CLD VIS AND WIND=

USA.gov is the U.S. government's official web portal to all federal, state and local government web resources and services.